Belle Chasse — WDG2912 — position and weather

sailwx.info

Track history (hours):
 
Tides and Currents Weather Stations Pressure Air Temp Water Temp Dewpoint Dewpoint Depression Visibility Wind Speed Wind Dir Waves Ship Positions

Belle Chasse

Owner: Higman Barge Lines, Inc, Orange, TX. More information available from US FCC via Universal Licensing System and Coast Guard Vessel Documentation Center.

Last reported at 2017-Jan-15 16:33 UTC. Time now 2017-Jan-20 05:52 UTC.
Position N 29°16' W 094°59'.

Length 26 m; draft 3 m.

Type: Towing. MMSI: 367520550.

Date/timePositionNaut miles runAvg speedWind from/ knotsBaromVisibWave heightAir tempDewpointWater temp
2017-Jan-15 16:33N 29°16' W 094°59'63 1.2
2017-Jan-13 13:28N 29°51' W 093°58'  
2017-Jan-10 20:33N 29°27' W 094°51'7 7.3
2017-Jan-10 19:33N 29°33' W 094°55'8 8.1
2017-Jan-10 18:33N 29°40' W 094°59'8 7.7
2017-Jan-10 17:33N 29°46' W 095°05'4 4.2
2017-Jan-10 16:30N 29°44' W 095°10'0 0.0
2017-Jan-10 14:31N 29°44' W 095°10'0 0.0
2017-Jan-09 19:27N 29°45' W 095°10'3 3.1
2017-Jan-09 18:32N 29°45' W 095°07'0 0.0
2017-Jan-09 17:33N 29°45' W 095°07'0 0.0
2017-Jan-09 16:32N 29°45' W 095°07'0 0.0
2017-Jan-09 15:32N 29°45' W 095°07'0 0.0
2017-Jan-09 14:32N 29°45' W 095°07'2 1.8
2017-Jan-09 13:33N 29°46' W 095°05'0 0.0
2017-Jan-09 12:30N 29°46' W 095°05'0 0.0
2017-Jan-09 11:27N 29°46' W 095°05'0 0.0
2017-Jan-09 10:06N 29°46' W 095°05'1 0.2
2017-Jan-09 06:33N 29°47' W 095°05'1 0.8
2017-Jan-09 05:32N 29°46' W 095°05'0 0.0
2017-Jan-09 04:29N 29°46' W 095°05'0 0.0
2017-Jan-09 03:32N 29°46' W 095°05'0 0.0
2017-Jan-09 02:32N 29°46' W 095°05'0 0.0
2017-Jan-09 01:29N 29°46' W 095°05'0 0.0
2017-Jan-09 00:14N 29°46' W 095°05'0 0.0
2017-Jan-08 23:32N 29°46' W 095°05'0 0.0
2017-Jan-08 22:32N 29°46' W 095°05'0 0.0
2017-Jan-08 21:32N 29°46' W 095°05'0 0.0
2017-Jan-08 20:32N 29°46' W 095°05'0 0.0
2017-Jan-08 19:32N 29°46' W 095°05'1 1.0
2017-Jan-08 18:32N 29°47' W 095°05'0 0.0
2017-Jan-08 17:32N 29°47' W 095°05'0 0.0
2017-Jan-08 16:32N 29°47' W 095°05'0 0.0
2017-Jan-08 15:32N 29°47' W 095°05'0 0.0
2017-Jan-08 14:29N 29°47' W 095°05'0 0.1
2017-Jan-08 13:33N 29°47' W 095°05'1 0.8
2017-Jan-08 12:32N 29°46' W 095°05'0 0.0
2017-Jan-08 11:32N 29°46' W 095°05'0 0.0
2017-Jan-08 10:32N 29°46' W 095°05'0 0.0
2017-Jan-08 09:32N 29°46' W 095°05'1 1.0
2017-Jan-08 08:33N 29°46' W 095°04'1 0.9
2017-Jan-08 07:31N 29°46' W 095°05'0 0.0
2017-Jan-08 06:31N 29°46' W 095°05'0 0.0
2017-Jan-08 05:31N 29°46' W 095°05'0 0.0
2017-Jan-08 04:31N 29°46' W 095°05'0 0.0
2017-Jan-08 03:31N 29°46' W 095°05'0 0.0
2017-Jan-08 02:31N 29°46' W 095°05'0 0.0
2017-Jan-08 01:31N 29°46' W 095°05'0 0.0
2017-Jan-08 00:31N 29°46' W 095°05'0 0.0
2017-Jan-07 23:28N 29°46' W 095°05'0 0.0
2017-Jan-07 22:31N 29°46' W 095°05'0 0.0
2017-Jan-07 21:31N 29°46' W 095°05'0 0.1
2017-Jan-07 20:32N 29°46' W 095°05'4 4.0
2017-Jan-07 19:33N 29°44' W 095°01'5 5.0
2017-Jan-07 18:34N 29°40' W 094°58'8 8.2
2017-Jan-07 17:34N 29°32' W 094°54'8 8.3
2017-Jan-07 16:33N 29°25' W 094°50'  
Track history (hours):
 
Tides and Currents Weather Stations Pressure Air Temp Water Temp Dewpoint Dewpoint Depression Visibility Wind Speed Wind Dir Waves Ship Positions

Belle Chasse

Owner: Higman Barge Lines, Inc, Orange, TX. More information available from US FCC via Universal Licensing System and Coast Guard Vessel Documentation Center.

Last reported at 2017-Jan-15 16:33 UTC. Time now 2017-Jan-20 05:52 UTC.
Position N 29°16' W 094°59'.

Length 26 m; draft 3 m.

Type: Towing. MMSI: 367520550.

Date/timePositionNaut miles runAvg speedWind from/ knotsBaromVisibWave heightAir tempDewpointWater temp
2017-Jan-15 16:33N 29°16' W 094°59'63 1.2
2017-Jan-13 13:28N 29°51' W 093°58'  
2017-Jan-10 20:33N 29°27' W 094°51'7 7.3
2017-Jan-10 19:33N 29°33' W 094°55'8 8.1
2017-Jan-10 18:33N 29°40' W 094°59'8 7.7
2017-Jan-10 17:33N 29°46' W 095°05'4 4.2
2017-Jan-10 16:30N 29°44' W 095°10'0 0.0
2017-Jan-10 14:31N 29°44' W 095°10'0 0.0
2017-Jan-09 19:27N 29°45' W 095°10'3 3.1
2017-Jan-09 18:32N 29°45' W 095°07'0 0.0
2017-Jan-09 17:33N 29°45' W 095°07'0 0.0
2017-Jan-09 16:32N 29°45' W 095°07'0 0.0
2017-Jan-09 15:32N 29°45' W 095°07'0 0.0
2017-Jan-09 14:32N 29°45' W 095°07'2 1.8
2017-Jan-09 13:33N 29°46' W 095°05'0 0.0
2017-Jan-09 12:30N 29°46' W 095°05'0 0.0
2017-Jan-09 11:27N 29°46' W 095°05'0 0.0
2017-Jan-09 10:06N 29°46' W 095°05'1 0.2
2017-Jan-09 06:33N 29°47' W 095°05'1 0.8
2017-Jan-09 05:32N 29°46' W 095°05'0 0.0
2017-Jan-09 04:29N 29°46' W 095°05'0 0.0
2017-Jan-09 03:32N 29°46' W 095°05'0 0.0
2017-Jan-09 02:32N 29°46' W 095°05'0 0.0
2017-Jan-09 01:29N 29°46' W 095°05'0 0.0
2017-Jan-09 00:14N 29°46' W 095°05'0 0.0
2017-Jan-08 23:32N 29°46' W 095°05'0 0.0
2017-Jan-08 22:32N 29°46' W 095°05'0 0.0
2017-Jan-08 21:32N 29°46' W 095°05'0 0.0
2017-Jan-08 20:32N 29°46' W 095°05'0 0.0
2017-Jan-08 19:32N 29°46' W 095°05'1 1.0
2017-Jan-08 18:32N 29°47' W 095°05'0 0.0
2017-Jan-08 17:32N 29°47' W 095°05'0 0.0
2017-Jan-08 16:32N 29°47' W 095°05'0 0.0
2017-Jan-08 15:32N 29°47' W 095°05'0 0.0
2017-Jan-08 14:29N 29°47' W 095°05'0 0.1
2017-Jan-08 13:33N 29°47' W 095°05'1 0.8
2017-Jan-08 12:32N 29°46' W 095°05'0 0.0
2017-Jan-08 11:32N 29°46' W 095°05'0 0.0
2017-Jan-08 10:32N 29°46' W 095°05'0 0.0
2017-Jan-08 09:32N 29°46' W 095°05'1 1.0
2017-Jan-08 08:33N 29°46' W 095°04'1 0.9
2017-Jan-08 07:31N 29°46' W 095°05'0 0.0
2017-Jan-08 06:31N 29°46' W 095°05'0 0.0
2017-Jan-08 05:31N 29°46' W 095°05'0 0.0
2017-Jan-08 04:31N 29°46' W 095°05'0 0.0
2017-Jan-08 03:31N 29°46' W 095°05'0 0.0
2017-Jan-08 02:31N 29°46' W 095°05'0 0.0
2017-Jan-08 01:31N 29°46' W 095°05'0 0.0
2017-Jan-08 00:31N 29°46' W 095°05'0 0.0
2017-Jan-07 23:28N 29°46' W 095°05'0 0.0
2017-Jan-07 22:31N 29°46' W 095°05'0 0.0
2017-Jan-07 21:31N 29°46' W 095°05'0 0.1
2017-Jan-07 20:32N 29°46' W 095°05'4 4.0
2017-Jan-07 19:33N 29°44' W 095°01'5 5.0
2017-Jan-07 18:34N 29°40' W 094°58'8 8.2
2017-Jan-07 17:34N 29°32' W 094°54'8 8.3
2017-Jan-07 16:33N 29°25' W 094°50'  

Dump ship's entire track history